Latest Observation

114 Stations

Daily Data
as of 9/5/26 2:24 PM PDT
Station Date Daily Max Temp (°F) Daily Min Temp (°F) Daily Max RH (%) Daily Min RH (%) Wind Spd (mph) Wind Dir (°) Daily Max Wind (mph) Max Wind Dir (°) Time of Max Wind Daily Rain (In) Weekly Precip (In) Season Precip (In) Soil Moist (%) Fuel Temp (°F) Fuel Moisture (%) MinBV Day (V)
Hobart Mills 9/4/26 57.4   0.4 43.0   4.7 94   2 60   11 2.5   0.6 SW | 221 16.8   3.7 WSW | 238 0548 0.07 0.10 - 7.5   0.1 49.3   3.0 32   21 12.4   0.1
Prosser Dam 9/4/26 60.0   0.5 43.6   6.5 93   11 52   10 4.0   1.0 SW | 226 20.2   1.7 SW | 232 1506 0.16 0.16 - 5.2   0.0 51.4   3.2 30   21 12.5   0.0
West Incline Village 9/4/26 50.7   1.5 43.5   1.1 98   14 68   37 3.2   0.7 SSW | 208 21.6   2.4 SSW | 192 0142 0.07 0.07 - 11.7   0.0 46.2   3.3 21   12 12.4   0.1
Incline Village (Fairview Blvd) 9/4/26 58.0   3.9 45.6   0.8 93   14 57   23 2.1   0.8 WSW | 248 18.5   3.0 W | 260 1213 0.00 0.00 - 7.6   0.0 51.0   1.5 12   5 12.5   0.0
Incline Village (Diamond Peak) 9/4/26 50.8   0.1 43.8   0.1 93   11 71   33 0.0   5.2 N | 0 12.9   2.2 W | 278 1456 0.01 0.01 - 2.4   0.1 -11.6   0.1 - 12.3   0.1
Incline Village (Mill Creek) 9/4/26 55.5   1.4 46.9   2.5 86   11 62   30 2.9   0.7 WSW | 245 18.9   0.0 WNW | 292 0346 0.00 0.00 - 2.9   0.0 - - 12.4   0.1
Incline Village (Lakeshore Blvd) 9/4/26 57.2   0.4 46.6   3.9 87   3 65   32 4.9   0.6 WSW | 240 17.0   2.5 SW | 224 0142 0.00 0.00 - 23.2   2.1 54.4   0.0 12   1 12.4   0.0
Glenbrook 9/4/26 57.8   0.0 42.6   9.0 80   9 55   17 6.6   2.4 SW | 234 26.3   0.5 WSW | 257 0144 0.00 0.00 - 43.4   0.2 52.5   2.3 16   1 12.5   0.0
Zephyr Cove 9/4/26 60.4   1.6 45.6   2.2 73   8 47   16 1.0   0.0 SE | 139 12.5   0.6 SW | 214 0101 0.00 0.00 - 2.8   0.0 53.5   0.4 9   1 12.6   0.0
Kingsbury Grade 9/4/26 58.0   2.0 41.0   3.2 83   15 51   19 1.8   0.4 W | 277 18.4   1.4 WSW | 246 0124 0.00 0.00 - 2.3   0.0 50.8   3.9 9   1 12.5   0.0
South Daggett Pass (Ridge) 9/4/26 55.0   0.6 41.1   0.5 90   13 55   18 2.0   1.0 WNW | 292 18.4   7.0 W | 271 0300 0.00 0.00 - 2.2   0.0 47.4   1.2 11   2 12.5   0.0
Palomino Valley 9/4/26 70.8   1.3 47.6   4.0 81   29 30   3 6.4   3.6 WSW | 244 34.6   1.4 WSW | 252 1540 0.00 0.00 - 6.6   0.0 61.6   3.0 9   2 12.5   0.0
East Cold Springs 9/4/26 64.0   2.1 49.8   2.1 85   7 39   2 9.2   2.3 WSW | 243 30.8   0.1 W | 264 2105 0.01 0.01 - 1.5   0.0 59.1   1.8 10   4 12.6   0.0
Peavine 9/4/26 60.8   1.3 50.0   1.1 77   3 41   11 16.5   4.1 SW | 229 48.4   1.6 WSW | 252 2010 0.05 0.06 - 4.2   0.1 55.5   1.8 19   13 13.1   0.0
West Verdi Peak 9/4/26 57.9   0.7 46.6   0.6 91   3 54   11 3.3   0.5 S | 169 19.9   4.1 SE | 146 0334 0.22 0.26 - 6.5   0.0 50.6   2.5 43   34 12.5   0.0
West Verdi 9/4/26 63.6   0.6 51.1   2.7 83   7 46   14 6.3   1.5 SW | 220 27.8   8.7 S | 181 1147 0.08 0.09 - 6.1   0.0 57.2   3.1 17   12 12.6   0.0
South Verdi 9/4/26 62.1   0.2 51.5   1.3 83   12 45   20 14.2   6.9 SW | 218 42.8   2.0 SSW | 206 2117 0.03 0.03 - 10.2   0.2 56.5   2.3 15   8 12.6   0.0
Northwest Reno 9/4/26 63.6   1.9 53.3   1.9 75   7 42   10 21.6   2.0 WSW | 255 51.2   0.6 W | 269 2041 0.00 0.00 - 24.5   0.2 -17.8   0.1 - 12.6   0.0
North Lawton 8/27/26 85.2   2.6 66.7   6.0 35   16 18   2 8.9   1.0 SW | 230 25.0   2.4 SW | 236 1526 0.00 0.00 - - - - 12.6   0.0
West Reno (Mogul) 9/4/26 65.0   1.3 52.7   2.3 83   13 42   14 4.4   3.6 WSW | 247 30.8   1.4 SW | 222 1335 0.00 0.00 - 19.5   0.1 60.4   4.1 5   4 12.5   0.0
Caughlin (Hunter Lake Trail) 9/4/26 64.3   1.0 50.6   4.4 83   17 41   10 6.9   3.2 W | 272 36.6   6.2 SW | 234 1903 0.00 0.00 - 16.2   0.1 56.2   5.5 10   3 12.6   0.0
ArrowCreek 9/4/26 65.3   20.9 49.3   51.4 68   2 37   34 9.3   2.4 S | 177 30.7   7.2 SSE | 159 0127 0.00 0.01 - - - - 12.4   1.4
Tracy 9/4/26 71.8   1.3 55.6   2.7 60   13 31   4 9.9   0.6 WSW | 250 35.9   4.2 WNW | 282 1439 0.00 0.00 - 15.6   0.1 66.2   1.3 7   0 12.7   0.0
Virginia Highlands 9/4/26 62.2   1.4 49.5   0.4 69   5 38   3 7.4   1.1 SW | 223 34.9   4.3 W | 261 1417 0.00 0.00 - 7.8   0.1 58.5   0.9 8   1 12.6   0.0
Virginia City 9/4/26 61.9   1.9 50.3   0.5 62   8 38   4 11.1   1.8 SSW | 198 34.8   4.8 S | 179 1500 0.00 0.00 - 4.7   0.0 59.4   0.4 7   1 12.6   0.0
Six Mile Canyon 9/4/26 72.1   1.4 56.2   1.8 52   10 26   1 10.4   1.0 WSW | 244 35.6   0.1 WSW | 257 1602 0.00 0.00 - 12.2   0.1 66.8   1.0 4   1 12.8   0.0
Mt Rose Highway 9/4/26 56.2   0.1 44.9   0.2 86   2 53   24 4.5   1.4 SSW | 197 33.4   1.9 WSW | 238 2034 0.03 0.06 - 7.4   0.0 48.6   4.2 23   14 12.5   0.0
Pleasant Valley 9/4/26 66.4   1.2 46.9   9.3 70   17 41   13 10.9   2.9 SW | 228 30.2   6.7 S | 189 1424 0.00 0.00 - 2.3   0.0 61.1   5.6 9   1 12.5   0.0
New Washoe City 9/4/26 65.6   1.3 50.8   2.0 66   10 38   6 11.4   1.9 SW | 223 33.0   3.5 WSW | 245 1546 0.00 0.00 - 3.4   0.0 59.9   0.8 8   1 12.6   0.0
Franktown Creek 9/4/26 64.9   1.8 53.0   3.1 73   14 44   16 4.0   1.5 SSW | 212 25.5   7.4 S | 174 0149 0.00 0.00 - 7.0   0.0 59.2   3.1 10   2 12.6   0.0
Musgrove Creek 9/4/26 63.3   0.6 51.9   1.1 75   13 43   12 2.2   0.1 W | 272 18.5   4.1 ESE | 111 1239 0.01 0.01 - 10.2   0.0 58.8   1.6 9   1 12.6   0.0
East Carson 11/22/24 63.8   0.3 41.7   4.6 85   21 21   9 14.9   6.0 SW | 224 46.6   12.7 S | 171 1835 0.05 0.05 4.48 2.5   0.0 53.9   0.3 9   0 12.6   0.0
Kings Canyon 9/4/26 63.9   1.8 54.6   0.5 56   6 40   11 5.8   0.8 SSW | 204 26.0   3.5 SW | 230 0959 0.00 0.00 - 4.1   0.0 59.5   0.5 6   1 12.6   0.0
Carson City (Voltaire Canyon) 9/4/26 66.0   3.0 55.4   2.1 56   6 37   10 15.8   0.3 SSW | 212 40.4   0.9 SSW | 201 1613 0.00 0.00 - 2.8   0.0 -11.0   0.0 - 12.6   0.0
Jacks Valley 9/4/26 67.2   0.7 54.3   0.0 55   5 36   9 11.5   0.1 WSW | 256 33.7   5.7 WSW | 248 1621 0.00 0.00 - 4.6   0.0 60.9   2.8 4   1 12.6   0.0
Genoa 9/4/26 68.6   2.4 56.4   1.0 56   5 37   12 1.9   0.3 WSW | 241 14.7   4.3 WSW | 252 2201 0.00 0.00 - 2.3   0.1 61.0   2.4 9   1 12.4   0.0
South Genoa (Walleys Hot Springs) 9/4/26 67.9   2.7 51.2   2.8 63   5 35   11 5.2   1.7 SW | 227 25.0   4.8 SSE | 150 1546 0.00 0.00 - 4.8   0.0 61.6   4.8 7   1 12.5   0.0
SW Gardnerville (HWY 88) 9/4/26 67.0   3.9 49.4   3.3 64   1 38   9 13.5   2.2 SSE | 163 31.9   4.5 S | 183 1042 0.00 0.00 - 2.8   0.0 60.4   0.9 8   0 9.3   0.3
Sheridan 9/4/26 67.8   5.0 49.8   0.7 60   11 36   8 6.3   0.3 SE | 138 24.6   3.6 SSE | 152 1734 0.00 0.00 - 1.1   0.0 61.2   2.4 4   1 12.6   0.0
Ruhenstroth 9/4/26 68.2   1.8 55.3   1.1 53   6 34   13 12.9   1.9 SSW | 198 31.7   4.1 S | 186 0439 0.00 0.00 - 6.8   0.0 63.0   1.5 6   1 12.6   0.0
Double Spring 9/4/26 66.4   0.2 48.0   9.3 66   0 31   0 8.2   1.9 WSW | 251 32.8   5.7 WSW | 257 1419 0.00 0.00 - 25.0   0.0 62.1   4.5 8   0 12.6   0.0
North Topaz Lake 9/4/26 70.8   0.4 55.2   0.7 50   1 29   2 9.0   1.0 SW | 218 30.9   2.0 SSE | 153 1007 0.00 0.00 - 7.7   0.1 66.1   0.3 6   1 12.6   0.0
Wild Oat Mountain 9/4/26 68.3   0.3 52.4   0.4 55   4 28   4 13.6   2.7 SW | 233 42.5   10.8 SW | 234 1541 0.00 0.00 - 5.7   0.0 62.0   0.4 6   1 12.6   0.0
Smith Valley 9/4/26 76.5   0.3 56.4   0.7 50   9 24   3 10.1   1.9 SW | 222 41.2   9.8 WSW | 258 1700 0.00 0.00 - 2.8   0.0 71.4   0.9 7   1 12.6   0.0
Pine Grove Mountain 9/4/26 62.9   0.6 43.2   2.0 73   13 34   5 7.7   1.0 SE | 145 26.6   4.2 N | 7 1457 0.00 0.00 - 6.7   0.1 58.0   0.1 6   2 12.6   0.0
Paradise Hill 9/4/26 66.6   6.0 53.1   2.7 74   22 43   16 11.2   1.3 WNW | 292 36.3   5.7 WNW | 286 1645 0.00 0.00 - 9.8   0.1 64.6   2.7 7   2 12.6   0.0
Winnemucca 9/4/26 68.1   5.8 52.1   2.9 70   14 43   19 5.8   1.5 NW | 309 22.5   2.9 WNW | 294 1619 0.00 0.00 - 5.6   0.0 63.4   3.0 7   1 12.6   0.0
NE Elko 9/4/26 79.0   0.1 44.9   7.3 61   25 20   4 5.2   1.3 NNE | 12 28.4   2.7 WSW | 239 1455 0.00 0.00 - 5.7   0.0 66.2   2.6 4   0 12.6   0.0
North Elko 9/4/26 76.8   0.1 53.7   0.2 57   14 21   4 6.8   1.3 WSW | 258 29.1   2.6 N | 351 2035 0.00 0.00 - 24.6   0.1 66.6   0.8 7   0 12.6   0.0
South Elko 9/4/26 110.0 53.2   0.4 89   10 22   4 4.7   2.6 W | 276 22.2   5.7 WNW | 303 1717 0.00 0.00 - 13.6   0.0 63.5   2.0 6   1 12.6   0.0
Lamoille 9/4/26 77.3   2.7 46.6   6.3 65   21 20   3 6.3   3.8 S | 177 21.9   4.5 WSW | 246 1544 0.00 0.00 - 6.2   0.1 65.6   2.1 6   0 12.8   0.0
Reid Gardner Sub 9/4/26 97.7   0.3 59.8   4.6 38   3 12   1 7.0   1.2 S | 178 35.2   9.2 SSE | 161 1501 0.00 0.00 - 24.9   0.1 85.5   0.7 1   0 12.6   0.0
Corn Creek 9/4/26 91.9   0.5 70.3   1.7 38   11 14   3 15.2   3.2 E | 91 40.0   1.1 E | 87 1101 0.00 0.00 - 3.1   0.0 83.1   1.6 2   1 12.5   0.0
Lucky Strike 9/4/26 78.6   2.4 62.9   0.3 32   6 16   7 11.5   4.0 SSE | 150 38.9   7.7 SSE | 154 1328 0.00 0.00 - 3.1   0.0 72.7   0.4 2   1 12.6   0.0
Lower Angel Peak 9/4/26 75.1   1.1 55.9   2.2 35   6 20   6 5.8   0.5 SE | 141 27.1   4.2 ESE | 121 1349 0.00 0.00 - 3.1   0.0 68.7   1.9 2   0 12.6   0.0
Angel Peak 9/4/26 64.8   0.2 53.3   0.6 38   9 27   12 19.1   10.6 S | 190 47.1   17.8 SW | 216 1927 0.00 0.00 - 2.5   0.1 61.4   0.4 4   1 12.5   0.0
Upper Kyle Canyon 9/4/26 67.7   1.8 56.6   1.1 33   5 25   10 5.9   1.1 ENE | 66 29.1   6.8 ESE | 105 1534 0.00 0.00 - 7.7   0.0 69.1   1.5 4   0 12.7   0.0
Mt Charleston 9/4/26 67.5   1.4 56.2   1.8 32   3 22   9 5.0   1.5 WNW | 293 28.7   1.2 WSW | 257 0230 0.00 0.00 - 13.2   0.1 66.4   0.1 10   0 12.6   0.0
Mid Kyle Canyon 9/4/26 75.2   1.3 59.6   2.9 34   8 19   6 10.6   3.5 SW | 230 35.0   3.0 SSW | 207 0133 0.00 0.00 - 5.8   0.0 73.0   1.9 4   1 12.7   0.0
Blue Diamond 9/4/26 89.7   2.3 70.7   3.8 32   4 13   1 8.6   0.8 W | 271 27.8   2.2 W | 281 0449 0.00 0.00 - 1.2   0.0 - - 12.6   0.0
Artesian Sub 9/4/26 100.2   1.5 78.1   1.2 31   9 11   0 5.5   0.6 SE | 146 19.9   3.4 S | 173 1400 0.00 0.00 - 11.7   0.0 - 0   0 12.6   0.0
North Henderson 9/4/26 99.8   0.6 79.1   1.3 30   7 10   1 7.4   0.0 S | 180 33.4   5.7 S | 172 1254 0.00 0.00 - 10.5   0.0 92.4   0.9 1   0 12.6   0.0
Sandy Valley 9/4/26 90.7   1.3 68.4   0.6 45   10 14   1 6.6   1.0 WSW | 244 24.2   1.7 W | 266 1442 0.00 0.00 - 7.6   0.2 82.0   1.2 4   1 12.6   0.0
Searchlight 9/4/26 88.4   0.3 64.8   0.6 44   13 16   3 8.8   0.1 S | 175 31.0   4.7 S | 171 1137 0.00 0.00 - 5.7   0.1 79.7   0.2 1   0 12.5   0.0
Laughlin 9/4/26 103.4   1.8 78.8   1.4 33   6 9   0 8.3   1.5 S | 191 32.9   6.0 SSE | 150 1326 0.00 0.00 - 4.4   0.0 90.6   1.3 3   0 12.7   0.0
31Mission Hills 9/4/26 94.2   0.5 73.8   0.4 30   9 11   1 9.9   0.2 S | 174 38.5   6.0 S | 184 1516 0.00 0.00 - 6.4   0.2 86.5   0.6 3   0 13.2   0.0
32 Enterprise Sierra Cliffs 9/4/26 91.1   1.3 69.6   3.2 35   9 11   0 9.2   3.1 S | 189 24.1   6.6 W | 268 1707 0.00 0.00 - 1.3   0.0 84.0   0.6 4   0 13.2   0.0
29 Calico Basin 9/4/26 87.6   1.5 68.3   0.6 32   9 12   0 10.0   0.5 SSW | 204 26.7   2.9 SSW | 200 1558 0.00 0.00 - 2.4   0.0 80.7   0.4 3   0 13.2   0.0
28 Indian Springs 9/4/26 92.9   0.8 65.0   3.4 33   12 12   3 8.3   2.7 S | 187 29.9   3.1 WSW | 253 1537 0.00 0.00 - 4.4   0.1 81.1   1.0 3   0 13.2   0.0
30 Jean 9/4/26 91.8   2.1 67.3   1.8 38   9 10   1 9.5   1.4 SSW | 213 29.1   0.1 SW | 219 1531 0.00 0.00 - 5.0   0.1 82.4   1.3 3   0 13.1   0.0
VC Highlands NW 9/4/26 61.6   1.4 48.3   0.5 67   6 39   7 4.7   0.5 SW | 232 27.1   1.9 WSW | 255 1506 0.00 0.00 - 1.5   0.0 55.4   2.5 8   1 13.1   0.0
Glenbrook-Spooner Summit 9/4/26 55.5   1.2 40.6   5.8 82   17 51   18 5.4   2.8 W | 264 23.8   5.8 WSW | 247 0125 0.00 0.00 - 7.7   0.0 52.3   1.6 9   1 13.2   0.0
Hobo Hot Springs 9/4/26 70.0   0.9 46.8   2.8 69   17 33   8 7.1   3.0 SW | 226 27.2   10.8 SW | 215 1733 0.00 0.00 - 1.1   0.0 61.7   2.5 7   1 13.2   0.0
Jack Valley Ranch 2 9/4/26 67.0   0.8 52.2   1.9 56   5 35   11 6.3   0.3 SW | 234 26.3   3.9 WNW | 284 1301 0.00 0.00 - 2.1   0.0 61.8   2.2 6   1 13.2   0.0
Genoa North 2 9/4/26 68.5   1.5 52.7   0.8 56   8 33   11 5.8   0.2 SW | 235 23.7   10.3 S | 177 0217 0.00 0.00 - 0.8   0.0 62.7   1.7 7   1 13.2   0.0
Mottsville 2 9/4/26 68.3   2.9 50.1   0.6 60   13 33   7 4.5   0.5 SSW | 199 28.4   3.7 S | 191 0144 0.00 0.00 - 1.3   0.0 61.8   0.6 8   1 13.2   0.0
Kingsbury Village 3 9/4/26 52.9   2.8 38.2   2.1 86   11 55   23 1.9   0.8 NNW | 329 15.5   1.7 SSE | 159 1642 0.00 0.00 - 3.2   0.0 46.1   2.9 12   2 13.2   0.0
Kingsbury-Benjamin Dr 2 9/4/26 55.6   2.7 41.6   0.2 82   11 50   18 1.7   1.0 W | 263 16.5   8.4 SW | 218 1702 0.00 0.00 - 2.9   0.1 48.8   2.6 10   2 13.2   0.0
Smith Valley-Wellington 9/4/26 75.2   0.5 54.2   3.2 55   14 23   1 9.0   0.3 SW | 229 36.9   5.8 WSW | 249 1650 0.00 0.00 - 3.5   0.0 68.9   0.6 6   1 13.2   0.0
Sheridan South 2 9/4/26 65.8   5.0 52.2   4.9 56   4 37   10 7.8   0.2 SSE | 152 28.1   3.1 S | 178 1448 0.00 0.00 - 0.5   0.0 60.7   3.1 7   1 13.2   0.0
Silver Springs 9/4/26 74.9   1.2 58.9   4.7 48   10 24   2 15.1   0.0 W | 262 42.5   0.0 SW | 236 1521 0.00 0.00 - 4.9   0.0 68.2   0.1 7   1 13.1   0.0
Fernley 9/4/26 74.6   0.9 54.0   0.0 67   25 24   2 10.8   1.3 WNW | 296 36.6   3.9 WNW | 302 1531 0.00 0.00 - 3.2   0.0 67.5   0.4 7   1 13.1   0.0
Spanish Springs 9/4/26 70.2   0.1 50.3   7.1 64   10 31   4 4.7   2.3 WSW | 246 26.2   0.7 WNW | 291 1612 0.00 0.00 - 10.1   0.1 65.1   1.7 8   1 13.2   0.0
Suttcliffe South 2 9/4/26 72.3   1.2 50.9   5.6 89   24 27   3 7.9   7.6 NW | 316 35.0   7.6 W | 274 1518 0.00 0.00 - 4.1   0.1 60.8   3.9 12   5 13.1   0.0
Lemmon Valley North 9/4/26 65.5   1.1 52.2   3.3 84   8 34   0 10.1   0.9 SSW | 213 29.7   2.7 WSW | 238 1446 0.02 0.02 - 2.0   0.0 59.2   1.2 13   6 13.2   0.0
Lemmon Valley NW 3 9/4/26 66.0   2.7 51.7   1.2 77   12 34   1 9.8   0.9 WSW | 258 31.3   0.9 SSW | 194 1226 0.00 0.00 - 1.2   0.0 62.0   0.4 8   2 13.2   0.0
VC Highlands North 9/4/26 62.6   0.9 45.7   4.5 73   14 37   5 7.6   0.0 SW | 220 27.4   2.6 SSW | 203 1619 0.00 0.00 - 4.6   0.0 58.3   1.8 8   1 13.2   0.0
Upper Voltaire Cyn 9/4/26 60.8   3.3 51.2   2.3 60   8 40   13 11.7   2.0 SSW | 201 35.9   7.6 WSW | 241 1423 0.00 0.00 - 1.1   0.0 56.5   3.8 9   1 13.2   0.0
Yerington NW 9/4/26 75.3   0.1 54.4   4.9 60   6 26   6 8.8   3.7 W | 279 32.9   8.8 W | 264 1649 0.00 0.01 - 7.2   0.0 66.2   0.5 9   1 13.2   0.0
Spanish Springs SW 9/4/26 69.0   1.4 49.6   6.8 62   3 31   4 8.2   1.2 WSW | 245 27.0   8.2 SW | 218 1336 0.00 0.00 - 1.4   0.0 63.2   1.8 8   1 13.2   0.0
Cosgrave 2 8/26/26 94.1   3.1 59.4   0.6 40   15 11   2 5.7   1.4 SSW | 205 26.1   5.0 WSW | 249 1345 0.00 0.00 - 4.0   0.1 82.4   4.3 5   1 13.2   0.0
Winnemucca-Grass Valley 2 9/4/26 69.3   5.1 48.6   0.4 81   18 39   18 7.2   0.3 NNW | 346 26.6   5.2 N | 6 1538 0.00 0.00 - 7.7   0.0 61.4   2.7 9   1 13.1   0.0
Winnemucca-Dutch Flat Rd 9/4/26 67.9   6.7 50.8   3.4 72   22 37   16 6.0   3.5 NW | 308 29.4   1.4 NW | 309 1813 0.00 0.01 - 6.2   0.0 63.5   2.0 7   2 13.2   0.0
Paradise Valley 2 9/4/26 70.5   2.0 48.4   3.9 70   10 31   5 5.3   0.3 S | 183 27.4   3.2 WSW | 246 1454 0.00 0.08 - 12.4   0.0 64.9   2.4 7   1 13.2   0.0
Golconda 2 9/4/26 69.6   5.5 50.8   2.3 72   24 37   16 9.2   1.5 NNW | 330 29.6   3.8 NNW | 340 1640 0.00 0.00 - 1.8   0.0 62.6   4.3 8   1 13.1   0.0
Battle Mountain - South 9/4/26 77.2   1.4 50.9   1.2 62   15 22   6 7.3   0.2 NNW | 329 30.6   3.5 NNW | 329 1751 0.00 0.00 - 9.2   0.0 69.3   1.6 5   1 13.1   0.0
Geiger Summit 9/4/26 59.6   1.3 47.2   0.2 100   0 100   0 8.8   0.2 SSW | 208 30.4   4.7 S | 183 1527 0.00 0.00 - 6.1   0.1 55.6   0.2 8   1 13.2   0.0
Combs Canyon 3 9/4/26 68.4   1.3 54.0   0.2 55   10 33   5 8.6   0.8 SW | 221 27.0   2.0 SW | 216 1029 0.00 0.00 - 1.0   0.0 65.2   1.6 7   0 13.2   0.0
Clear Creek 9/4/26 61.5   3.4 50.8   2.5 61   11 39   13 8.1   0.7 SSW | 192 29.7   1.5 SSE | 151 0200 0.00 0.00 - 3.4   0.0 57.1   2.8 9   1 13.1   0.0
Eastlake 2 9/4/26 67.6   0.6 56.8   2.2 54   2 34   6 9.5   1.5 S | 175 29.2   0.1 SE | 138 1458 0.00 0.00 - 3.4   0.0 63.9   1.8 7   0 13.3   0.0
Lovelock-Colado 2 9/4/26 74.3   3.1 45.5   5.8 68   3 28   8 7.5   1.0 NNE | 24 20.9   4.1 N | 350 1604 0.00 0.00 - - 64.4   2.3 7   1 13.1   0.0
Spanish Springs NW 9/4/26 70.2   1.7 52.9   4.3 63   8 30   2 5.7   1.6 W | 272 25.7   5.2 SSW | 205 1410 0.00 0.00 - 12.2   0.1 62.4   2.0 7   1 13.1   0.0
Battle Mountain NW 9/4/26 72.8   5.6 52.6   0.4 59   13 27   10 6.2   1.6 NNW | 329 26.1   8.1 WNW | 297 1843 0.00 0.00 - 8.7   0.0 64.8   4.4 5   1 13.2   0.0
Austin 2 9/4/26 74.2   0.8 37.6   0.8 74   19 17   1 5.8   0.1 SW | 235 24.7   12.4 SE | 138 1110 0.00 0.11 - 2.5   0.1 60.9   0.5 6   1 13.2   0.0
Elko-Osino 9/4/26 79.3   0.7 44.2   7.9 65   24 18   3 5.5   1.5 W | 272 23.2   4.1 WSW | 254 1516 0.00 0.00 - 1.5   0.0 67.2   1.4 7   0 13.2   0.0
Elko-Bill Fishpond 2 9/4/26 78.4   1.5 47.8   3.9 64   25 19   4 4.9   1.9 S | 187 17.9   9.6 NW | 318 1441 0.00 0.00 - 3.5   0.0 64.5   2.9 6   0 13.2   0.0
Spring Creek SE 2 9/4/26 78.3   1.2 44.2   7.1 64   20 17   3 6.5   1.0 SE | 133 28.4   1.0 SW | 214 1223 0.00 0.00 - 0.2   0.0 63.9   1.4 6   0 13.2   0.0
Spring Creek NW 9/4/26 78.1   1.4 49.2   2.6 58   17 18   2 4.9   2.4 W | 278 23.5   1.0 SSW | 194 1319 0.00 0.00 - 2.2   0.0 65.0   3.0 5   1 13.2   0.0
Elko-Moleen 9/4/26 79.4   0.1 43.6   3.6 70   25 18   3 4.8   1.1 WNW | 296 21.9   3.6 NNW | 338 2006 0.00 0.00 - 6.2   0.0 66.6   1.0 7   0 13.2   0.0
Elko-West 9/4/26 80.3   0.9 41.6   3.9 74   25 18   3 4.5   1.5 W | 278 27.1   2.6 WSW | 241 1558 0.00 0.00 - 33.4   0.2 63.9   1.8 6   0 13.1   0.0
Elko-Adobe Creek 9/4/26 72.4   1.9 46.2   2.2 71   25 22   3 7.6   1.5 W | 269 26.0   8.4 NNE | 14 2038 0.00 0.00 - 18.5   0.0 63.1   0.2 7   1 13.2   0.0
Tuscarora SW 9/4/26 70.0   2.7 42.7   4.5 73   13 28   8 7.0   0.9 N | 352 25.2   5.8 NNW | 332 1742 0.00 0.00 - 6.8   0.0 57.6   3.9 7   1 13.2   0.0
Elko-Monument Peak 9/4/26 74.3   1.9 38.0   6.2 71   28 21   2 6.9   0.0 SSW | 194 26.4   3.0 NNE | 17 1943 0.00 0.00 - 4.1   0.3 60.1   1.5 5   1 13.2   0.0
Wild Horse 9/4/26 67.7   1.9 46.6   1.1 74   21 27   6 8.0   0.9 N | 11 26.0   3.7 N | 350 1733 0.00 0.00 - 4.5   0.0 57.6   3.6 6   1 13.1   0.0
Max   110.0 79.1 100 100 21.6 - 51.2 - - 0.22 - - 43.4 92.4 43 13.3
Avg   - - - - 7.6 - - - - - - - 7.0 61.1 8 -
Min   50.7 37.6 30 9 0.0 - 12.5 - - 0.00 - - 0.2 -17.8 0 9.3